Time;durP1;ratioP1;P1;durP2;ratioP2;P2;SDS_P1;SDS_P2;PMS_P1;PMS_P2;Temp;Humidity;BMP_temperature;BMP_pressure;BME280_temperature;BME280_humidity;BME280_pressure;Samples;Min_cycle;Max_cycle;Signal;HPM_P1;HPM_P2
2023/08/13 00:04:33;;;;;;;0.30;0.30;;;;;;;20.27;62.89;96964.94;10483740;28;20036;-29
2023/08/13 00:09:33;;;;;;;0.60;0.60;;;;;;;20.27;62.47;96957.28;10491483;28;20289;-29
2023/08/13 00:14:34;;;;;;;0.70;0.70;;;;;;;20.27;62.76;96964.94;10488019;28;20051;-29
2023/08/13 00:19:34;;;;;;;0.40;0.40;;;;;;;20.26;62.51;96965.78;10491231;28;20565;-28
2023/08/13 00:24:35;;;;;;;0.40;0.40;;;;;;;20.26;62.38;96960.69;10489110;28;20552;-29
2023/08/13 00:29:37;;;;;;;0.77;0.60;;;;;;;20.26;62.70;96970.88;10490884;28;20058;-28
2023/08/13 00:34:38;;;;;;;0.38;0.38;;;;;;;20.27;63.11;96957.28;10486745;28;20025;-29
2023/08/13 00:39:38;;;;;;;0.40;0.40;;;;;;;20.26;62.76;96950.53;10491209;28;20036;-29
2023/08/13 00:44:38;;;;;;;0.43;0.40;;;;;;;20.23;62.46;96946.28;10477253;28;20302;-29
2023/08/13 00:49:39;;;;;;;0.40;0.40;;;;;;;20.26;62.43;96956.44;10476185;28;20029;-29
2023/08/13 00:54:39;;;;;;;0.40;0.40;;;;;;;20.27;62.53;96947.13;10490226;28;20040;-29
2023/08/13 00:59:40;;;;;;;0.43;0.43;;;;;;;20.27;62.50;96947.13;10493524;28;20295;-30
2023/08/13 01:04:40;;;;;;;0.40;0.40;;;;;;;20.27;62.47;96947.13;10498964;28;20029;-28
2023/08/13 01:10:00;;;;;;;0.30;0.30;;;;;;;20.28;62.43;96953.91;10493606;28;20024;-29
2023/08/13 01:15:07;;;;;;;0.40;0.40;;;;;;;20.27;62.44;96952.22;10489174;28;20041;-29
2023/08/13 01:20:08;;;;;;;0.40;0.40;;;;;;;20.28;62.39;96964.06;10489188;28;20051;-29
2023/08/13 01:25:09;;;;;;;0.30;0.30;;;;;;;20.28;62.53;96959.81;10496154;28;20040;-29
2023/08/13 01:30:15;;;;;;;0.30;0.30;;;;;;;20.27;62.45;96962.38;10494568;28;20036;-29
2023/08/13 01:35:21;;;;;;;0.80;0.77;;;;;;;20.28;62.54;96957.28;10486418;28;20115;-29
2023/08/13 01:40:21;;;;;;;0.30;0.30;;;;;;;20.27;62.37;96952.22;10489827;28;20029;-31
2023/08/13 01:45:22;;;;;;;0.40;0.40;;;;;;;20.27;62.39;96954.75;10488590;28;20036;-29
2023/08/13 01:50:23;;;;;;;0.60;0.60;;;;;;;20.22;62.54;96949.69;10490304;28;20036;-29
2023/08/13 01:55:24;;;;;;;0.40;0.40;;;;;;;20.27;62.42;96958.13;10486765;28;20089;-29
2023/08/13 02:00:24;;;;;;;0.32;0.30;;;;;;;20.27;62.22;96947.97;10494667;28;20074;-29
2023/08/13 02:05:25;;;;;;;0.50;0.50;;;;;;;20.27;62.54;96947.97;10494892;28;20032;-30
2023/08/13 02:10:25;;;;;;;0.40;0.40;;;;;;;20.26;62.39;96960.69;10495442;28;20704;-30
2023/08/13 02:15:26;;;;;;;0.27;0.27;;;;;;;20.27;62.67;96947.13;10486261;28;20291;-29
2023/08/13 02:20:26;;;;;;;0.50;0.50;;;;;;;20.26;62.47;96925.09;10495463;28;20619;-29
2023/08/13 02:25:26;;;;;;;0.30;0.30;;;;;;;20.27;62.63;96931.88;10486645;28;20032;-29
2023/08/13 02:30:27;;;;;;;1.47;0.53;;;;;;;20.28;62.64;96934.38;10495224;28;20411;-29
2023/08/13 02:35:27;;;;;;;0.35;0.30;;;;;;;20.27;62.44;96922.53;10492431;28;20414;-29
2023/08/13 02:40:27;;;;;;;0.40;0.40;;;;;;;20.28;62.24;96913.22;10493157;28;20434;-29
2023/08/13 02:45:28;;;;;;;0.30;0.30;;;;;;;20.28;62.48;96914.03;10491546;28;20054;-29
2023/08/13 02:50:28;;;;;;;0.80;0.40;;;;;;;20.27;62.30;96911.53;10488515;28;20033;-29
2023/08/13 02:55:29;;;;;;;0.40;0.40;;;;;;;20.28;62.23;96908.13;10488486;28;20116;-29
2023/08/13 03:00:30;;;;;;;0.50;0.50;;;;;;;20.28;62.56;96898.78;10485883;28;20035;-29
2023/08/13 03:05:32;;;;;;;0.40;0.40;;;;;;;20.26;62.21;96875.06;10492258;28;20077;-28
2023/08/13 03:10:32;;;;;;;0.40;0.40;;;;;;;20.28;62.33;96888.63;10481711;28;20329;-29
2023/08/13 03:15:33;;;;;;;0.47;0.47;;;;;;;20.28;62.63;96893.69;10483498;28;20109;-28
2023/08/13 03:20:34;;;;;;;0.35;0.35;;;;;;;20.26;62.27;96892.88;10491574;28;20021;-29
2023/08/13 03:25:34;;;;;;;1.97;0.47;;;;;;;20.29;62.46;96886.94;10491589;28;20039;-28
2023/08/13 03:30:34;;;;;;;0.40;0.40;;;;;;;20.29;62.34;96892.03;10492330;28;20287;-29
2023/08/13 03:35:37;;;;;;;0.30;0.30;;;;;;;20.29;62.21;96894.56;10489445;28;20657;-29
2023/08/13 03:40:38;;;;;;;0.32;0.32;;;;;;;20.29;62.49;96915.75;10490730;28;20031;-29
2023/08/13 03:45:39;;;;;;;0.67;0.50;;;;;;;20.30;62.40;96901.34;10476515;28;20462;-29
2023/08/13 03:50:41;;;;;;;0.30;0.30;;;;;;;20.26;62.55;96894.59;10459164;28;20409;-28
2023/08/13 03:55:42;;;;;;;0.50;0.50;;;;;;;20.30;62.18;96914.06;10487132;28;20157;-28
2023/08/13 04:00:42;;;;;;;0.55;0.55;;;;;;;20.30;62.36;96921.69;10477457;28;20021;-29
2023/08/13 04:05:43;;;;;;;0.60;0.43;;;;;;;20.30;62.47;96924.22;10483288;28;20039;-29
2023/08/13 04:10:44;;;;;;;0.38;0.38;;;;;;;20.31;62.38;96914.06;10484670;28;20387;-29
2023/08/13 04:15:44;;;;;;;0.30;0.30;;;;;;;20.30;62.51;96921.69;10488476;28;20663;-29
2023/08/13 04:20:45;;;;;;;0.40;0.40;;;;;;;20.24;62.32;96921.69;10489857;28;20402;-28
2023/08/13 04:25:45;;;;;;;0.30;0.30;;;;;;;20.30;62.22;96942.03;10483986;28;20486;-28
2023/08/13 04:30:46;;;;;;;0.50;0.50;;;;;;;20.29;62.19;96940.34;10474880;28;20025;-29
2023/08/13 04:35:51;;;;;;;0.77;0.57;;;;;;;20.29;62.14;96930.16;10485763;28;20032;-28
2023/08/13 04:40:52;;;;;;;0.53;0.50;;;;;;;20.30;62.48;96921.69;10490109;28;20029;-28
2023/08/13 04:45:53;;;;;;;0.30;0.30;;;;;;;20.29;62.10;96930.16;10485972;28;20283;-29
2023/08/13 04:50:54;;;;;;;1.05;0.55;;;;;;;20.29;62.21;96940.34;10483840;28;20029;-28
2023/08/13 04:55:55;;;;;;;0.40;0.33;;;;;;;20.30;62.38;96931.84;10481151;28;20406;-29
2023/08/13 05:00:55;;;;;;;0.43;0.35;;;;;;;20.29;62.25;96931.03;10472349;28;20193;-29
2023/08/13 05:05:58;;;;;;;0.40;0.40;;;;;;;20.30;62.24;96926.75;10488967;28;20525;-29
2023/08/13 05:10:58;;;;;;;0.35;0.35;;;;;;;20.28;62.03;96924.22;10485518;28;20112;-29
2023/08/13 05:15:59;;;;;;;0.22;0.22;;;;;;;20.29;62.29;96915.75;10489106;28;20093;-29
2023/08/13 05:20:59;;;;;;;0.35;0.35;;;;;;;20.24;62.19;96922.56;10487379;28;20063;-29
2023/08/13 05:26:00;;;;;;;0.50;0.50;;;;;;;20.29;62.25;96922.53;10472187;28;20490;-29
2023/08/13 05:31:03;;;;;;;1.33;0.70;;;;;;;20.29;62.08;96931.03;10472039;28;20498;-29
2023/08/13 05:36:04;;;;;;;0.73;0.50;;;;;;;20.30;62.17;96929.31;10483451;28;20043;-29
2023/08/13 05:41:04;;;;;;;0.40;0.40;;;;;;;20.30;62.04;96936.94;10497263;28;20035;-29
2023/08/13 05:46:07;;;;;;;0.37;0.37;;;;;;;20.29;61.89;96930.16;10485150;28;20068;-29
2023/08/13 05:51:09;;;;;;;0.40;0.40;;;;;;;20.30;61.88;96914.06;10494323;28;20368;-28
2023/08/13 05:56:10;;;;;;;0.40;0.40;;;;;;;20.21;61.96;96896.28;10493884;28;20563;-29
2023/08/13 06:01:11;;;;;;;0.40;0.40;;;;;;;20.30;62.15;96906.41;10495752;28;20267;-29
2023/08/13 06:06:12;;;;;;;0.30;0.30;;;;;;;20.30;62.12;96908.97;10495177;28;20552;-29
2023/08/13 06:11:12;;;;;;;0.43;0.28;;;;;;;20.30;62.26;96896.25;10491859;28;20041;-29
2023/08/13 06:16:14;;;;;;;0.30;0.30;;;;;;;20.30;62.26;96891.16;10488343;28;20041;-29
2023/08/13 06:21:14;;;;;;;0.40;0.40;;;;;;;20.29;62.10;96890.34;10484326;28;20025;-29
2023/08/13 06:26:15;;;;;;;0.32;0.32;;;;;;;20.28;61.96;96880.16;10487201;28;20040;-29
2023/08/13 06:31:15;;;;;;;0.80;0.60;;;;;;;20.30;62.10;96891.16;10479469;28;20050;-29
2023/08/13 06:36:15;;;;;;;0.30;0.30;;;;;;;20.30;62.27;96893.72;10495386;28;20044;-29
2023/08/13 06:41:16;;;;;;;0.43;0.43;;;;;;;20.28;62.09;96897.97;10491218;28;20126;-28
2023/08/13 06:46:16;;;;;;;0.40;0.40;;;;;;;20.30;62.94;96899.66;10494163;28;20032;-29
2023/08/13 06:51:16;;;;;;;0.70;0.50;;;;;;;20.29;61.92;96889.47;10487888;28;20295;-29
2023/08/13 06:56:17;;;;;;;0.37;0.37;;;;;;;20.30;62.03;96888.63;10490756;28;20043;-29
2023/08/13 07:01:17;;;;;;;0.30;0.30;;;;;;;20.30;62.16;96894.56;10493627;28;20033;-29
2023/08/13 07:06:17;;;;;;;0.40;0.40;;;;;;;20.29;62.22;96894.56;10492859;28;20032;-29
2023/08/13 07:11:18;;;;;;;0.30;0.30;;;;;;;20.30;62.02;96886.06;10493019;28;20112;-29
2023/08/13 07:16:18;;;;;;;0.30;0.30;;;;;;;20.30;62.05;96891.16;10490817;28;20074;-28
2023/08/13 07:21:19;;;;;;;0.43;0.43;;;;;;;20.31;61.91;96897.94;10486773;28;20301;-29
2023/08/13 07:26:19;;;;;;;0.33;0.30;;;;;;;20.31;62.12;96898.81;10484388;28;20028;-29
2023/08/13 07:31:19;;;;;;;0.63;0.37;;;;;;;20.26;62.13;96897.13;10486409;28;20043;-29
2023/08/13 07:36:20;;;;;;;0.40;0.40;;;;;;;20.31;62.24;96898.81;10484115;28;20321;-29
2023/08/13 07:41:20;;;;;;;0.30;0.28;;;;;;;20.30;62.08;96901.34;10485179;28;20038;-29
2023/08/13 07:46:21;;;;;;;0.20;0.20;;;;;;;20.33;62.55;96908.97;10488566;28;20435;-28
2023/08/13 07:51:21;;;;;;;0.50;0.50;;;;;;;20.32;62.31;96910.66;10483513;28;20055;-28
2023/08/13 07:56:22;;;;;;;0.50;0.50;;;;;;;20.32;62.14;96905.56;10483716;28;20055;-30
2023/08/13 08:01:22;;;;;;;0.50;0.50;;;;;;;20.33;62.71;96893.72;10483608;28;20627;-29
2023/08/13 08:06:22;;;;;;;0.30;0.30;;;;;;;20.33;62.42;96898.81;10487693;28;20123;-29
2023/08/13 08:11:23;;;;;;;0.50;0.50;;;;;;;20.34;62.84;96900.50;10480464;28;20392;-29
2023/08/13 08:16:23;;;;;;;0.30;0.30;;;;;;;20.33;62.48;96888.63;10491718;28;20029;-29
2023/08/13 08:21:23;;;;;;;0.50;0.40;;;;;;;20.35;62.63;96889.47;10484331;28;20033;-29
2023/08/13 08:26:24;;;;;;;0.50;0.30;;;;;;;20.32;62.43;96876.75;10491186;28;20074;-31
2023/08/13 08:31:24;;;;;;;0.33;0.33;;;;;;;20.33;62.46;96879.28;10486038;28;20032;-29
2023/08/13 08:36:24;;;;;;;0.30;0.30;;;;;;;20.35;62.44;96872.50;10483470;28;20028;-29
2023/08/13 08:41:28;;;;;;;0.50;0.50;;;;;;;20.34;62.50;96867.44;10476383;28;20169;-29
2023/08/13 08:46:29;;;;;;;0.25;0.25;;;;;;;20.33;62.50;96866.56;10477344;28;20545;-28
2023/08/13 08:51:30;;;;;;;0.40;0.30;;;;;;;20.36;62.50;96860.63;10483190;28;20073;-29
2023/08/13 08:56:30;;;;;;;0.38;0.38;;;;;;;20.34;62.67;96847.91;10483586;28;20051;-28
2023/08/13 09:01:32;;;;;;;0.30;0.30;;;;;;;20.36;62.85;96845.38;10491177;28;20040;-29
2023/08/13 09:06:52;;;;;;;0.50;0.40;;;;;;;20.33;62.60;96832.69;10471634;28;20040;-29
2023/08/13 09:11:54;;;;;;;0.52;0.40;;;;;;;20.36;62.99;96835.19;10490066;28;20040;-29
2023/08/13 09:16:56;;;;;;;0.40;0.40;;;;;;;20.36;62.61;96842.84;10495305;28;20036;-28
2023/08/13 09:22:00;;;;;;;0.40;0.40;;;;;;;20.34;62.52;96834.38;10481898;28;20714;-29
2023/08/13 09:27:01;;;;;;;0.45;0.40;;;;;;;20.36;62.89;96836.03;10492906;28;20083;-29
2023/08/13 09:32:02;;;;;;;0.60;0.50;;;;;;;20.37;62.70;96837.75;10491949;28;20785;-29
2023/08/13 09:37:03;;;;;;;0.70;0.50;;;;;;;20.36;62.42;96847.91;10490025;28;20024;-29
2023/08/13 09:42:05;;;;;;;0.50;0.50;;;;;;;20.36;62.58;96843.66;10491449;28;20048;-29
2023/08/13 09:47:08;;;;;;;0.63;0.50;;;;;;;20.37;62.73;96852.16;10497631;28;20509;-29
2023/08/13 09:52:11;;;;;;;0.40;0.40;;;;;;;20.38;63.06;96848.75;10482177;28;20036;-29
2023/08/13 09:57:15;;;;;;;0.40;0.32;;;;;;;20.38;62.94;96852.97;10495706;28;20028;-29
2023/08/13 10:02:18;;;;;;;0.43;0.40;;;;;;;20.38;63.10;96856.38;10496155;28;20048;-29
2023/08/13 10:07:19;;;;;;;0.60;0.60;;;;;;;20.37;62.80;96853.00;10489450;28;20036;-30
2023/08/13 10:12:21;;;;;;;0.50;0.50;;;;;;;20.38;62.70;96851.28;10495827;28;20544;-28
2023/08/13 10:17:26;;;;;;;0.70;0.52;;;;;;;20.38;62.66;96853.84;10492635;28;20145;-28
2023/08/13 10:22:39;;;;;;;0.40;0.40;;;;;;;20.36;62.94;96846.19;10493161;28;20066;-29
2023/08/13 10:27:43;;;;;;;0.40;0.40;;;;;;;20.38;63.06;96848.75;10487667;28;20460;-29
2023/08/13 10:33:00;;;;;;;0.57;0.57;;;;;;;20.38;62.72;96849.59;10491104;28;20085;-29
2023/08/13 10:38:02;;;;;;;0.40;0.30;;;;;;;20.38;62.78;96852.97;10486903;28;20059;-29
2023/08/13 10:43:04;;;;;;;0.50;0.50;;;;;;;20.39;63.32;96848.75;10492160;28;20032;-29
2023/08/13 10:48:05;;;;;;;0.60;0.60;;;;;;;20.39;62.99;96841.13;10494399;28;20127;-29
2023/08/13 10:53:24;;;;;;;0.40;0.40;;;;;;;20.38;63.08;96842.81;10487353;28;20407;-29
2023/08/13 10:58:30;;;;;;;0.57;0.57;;;;;;;20.40;62.69;96842.81;10488131;28;20086;-29
2023/08/13 11:03:31;;;;;;;0.43;0.43;;;;;;;20.39;63.07;96841.94;10492480;28;20028;-29
2023/08/13 11:08:31;;;;;;;0.43;0.43;;;;;;;20.40;63.16;96827.56;10484866;28;20032;-29
2023/08/13 11:13:33;;;;;;;0.52;0.52;;;;;;;20.40;62.80;96840.25;10493073;28;20490;-29
2023/08/13 11:18:33;;;;;;;0.55;0.55;;;;;;;20.40;62.82;96832.63;10486796;28;20032;-29
2023/08/13 11:23:34;;;;;;;0.40;0.40;;;;;;;20.39;62.87;96841.94;10487681;28;20048;-29
2023/08/13 11:28:34;;;;;;;0.40;0.40;;;;;;;20.39;63.21;96831.78;10493020;28;20283;-30
2023/08/13 11:33:34;;;;;;;0.60;0.60;;;;;;;20.40;62.93;96841.09;10485695;28;20299;-29
2023/08/13 11:38:35;;;;;;;0.40;0.40;;;;;;;20.40;63.17;96827.56;10485681;28;20041;-29
2023/08/13 11:43:36;;;;;;;0.52;0.52;;;;;;;20.38;62.96;96824.19;10482316;28;20040;-29
2023/08/13 11:48:37;;;;;;;0.50;0.50;;;;;;;20.39;63.14;96821.59;10483598;28;20039;-29
2023/08/13 11:53:42;;;;;;;0.40;0.40;;;;;;;20.42;63.29;96809.75;10482633;28;20421;-29
2023/08/13 11:58:43;;;;;;;0.45;0.45;;;;;;;20.40;63.08;96813.13;10484240;28;20036;-29
2023/08/13 12:03:44;;;;;;;0.60;0.60;;;;;;;20.40;63.12;96802.94;10491894;28;20028;-29
2023/08/13 12:08:46;;;;;;;0.60;0.60;;;;;;;20.40;63.21;96797.03;10490469;28;20486;-29
2023/08/13 12:13:46;;;;;;;0.40;0.40;;;;;;;20.41;63.24;96788.53;10491311;28;20032;-28
2023/08/13 12:18:46;;;;;;;0.47;0.47;;;;;;;20.40;63.01;96777.50;10485968;28;20401;-29
2023/08/13 12:23:47;;;;;;;0.40;0.40;;;;;;;20.42;63.23;96774.97;10482909;28;20353;-29
2023/08/13 12:28:50;;;;;;;0.50;0.50;;;;;;;20.42;63.31;96763.97;10483824;28;20028;-29
2023/08/13 12:33:54;;;;;;;0.40;0.40;;;;;;;20.42;63.07;96761.44;10489368;28;20135;-29
2023/08/13 12:38:54;;;;;;;0.60;0.60;;;;;;;20.40;63.22;96764.78;10491112;28;20135;-29
2023/08/13 12:43:54;;;;;;;0.50;0.37;;;;;;;20.42;63.07;96758.88;10484623;28;20033;-28
2023/08/13 12:48:55;;;;;;;0.50;0.50;;;;;;;20.42;63.46;96754.63;10491461;28;20043;-29
2023/08/13 12:53:55;;;;;;;0.40;0.40;;;;;;;20.42;63.42;96747.84;10493252;28;20093;-29
2023/08/13 12:58:55;;;;;;;0.40;0.40;;;;;;;20.42;63.58;96745.31;10491241;28;20448;-29
2023/08/13 13:03:56;;;;;;;0.60;0.57;;;;;;;20.42;63.43;96748.72;10492441;28;20394;-29
2023/08/13 13:08:57;;;;;;;0.50;0.50;;;;;;;20.38;63.38;96730.91;10489984;28;20040;-29
2023/08/13 13:13:57;;;;;;;0.50;0.50;;;;;;;20.44;63.19;96737.66;10493882;28;20410;-29
2023/08/13 13:18:57;;;;;;;0.75;0.47;;;;;;;20.43;63.27;96741.91;10490665;28;20036;-29
2023/08/13 13:23:58;;;;;;;0.50;0.50;;;;;;;20.43;63.52;96738.50;10492769;28;20028;-29
2023/08/13 13:28:59;;;;;;;0.50;0.47;;;;;;;20.43;63.38;96741.91;10493995;28;20032;-29
2023/08/13 13:33:59;;;;;;;0.50;0.50;;;;;;;20.41;63.38;96737.69;10489251;28;20036;-29
2023/08/13 13:38:59;;;;;;;0.70;0.67;;;;;;;20.44;63.14;96737.66;10489163;28;20028;-29
2023/08/13 13:44:00;;;;;;;0.67;0.67;;;;;;;20.44;63.51;96733.41;10483926;28;20295;-29
2023/08/13 13:49:00;;;;;;;0.60;0.60;;;;;;;20.44;63.77;96733.41;10480617;28;20025;-29
2023/08/13 13:54:00;;;;;;;0.37;0.37;;;;;;;20.44;63.30;96724.94;10496086;28;20037;-29
2023/08/13 13:59:01;;;;;;;0.70;0.60;;;;;;;20.43;63.28;96724.09;10481498;28;20028;-30
2023/08/13 14:04:02;;;;;;;0.52;0.52;;;;;;;20.44;63.38;96715.63;10495363;28;20028;-29
2023/08/13 14:09:02;;;;;;;0.57;0.52;;;;;;;20.45;63.64;96712.22;10488507;28;20033;-29
2023/08/13 14:14:05;;;;;;;0.52;0.50;;;;;;;20.42;63.44;96702.94;10480150;28;20032;-29
2023/08/13 14:19:06;;;;;;;0.38;0.30;;;;;;;20.43;63.79;96706.31;10495650;28;20161;-29
2023/08/13 14:24:07;;;;;;;0.50;0.50;;;;;;;20.45;63.50;96703.75;10486395;28;20090;-29
2023/08/13 14:29:08;;;;;;;0.50;0.50;;;;;;;20.45;63.40;96707.13;10493782;28;20283;-29
2023/08/13 14:34:08;;;;;;;0.30;0.30;;;;;;;20.45;63.38;96701.22;10479855;28;20406;-29
2023/08/13 14:39:08;;;;;;;0.40;0.40;;;;;;;20.46;63.40;96710.53;10495194;28;20066;-29
2023/08/13 14:44:09;;;;;;;0.82;0.60;;;;;;;20.46;63.55;96711.34;10492355;28;20028;-29
2023/08/13 14:49:10;;;;;;;0.50;0.50;;;;;;;20.46;63.26;96710.53;10492479;28;20035;-29
2023/08/13 14:54:10;;;;;;;0.40;0.40;;;;;;;20.45;63.43;96709.66;10487851;28;20116;-29
2023/08/13 14:59:11;;;;;;;0.70;0.70;;;;;;;20.46;63.63;96707.97;10488525;28;20116;-29
2023/08/13 15:04:11;;;;;;;0.50;0.50;;;;;;;20.45;63.61;96709.66;10493863;28;20374;-29
2023/08/13 15:09:11;;;;;;;0.70;0.50;;;;;;;20.46;63.65;96706.25;10480086;28;20298;-29
2023/08/13 15:14:12;;;;;;;0.50;0.43;;;;;;;20.46;63.49;96711.34;10478499;28;20040;-28
2023/08/13 15:19:12;;;;;;;0.80;0.60;;;;;;;20.47;63.52;96718.13;10490330;28;20286;-29
2023/08/13 15:24:12;;;;;;;0.30;0.30;;;;;;;20.47;63.34;96722.38;10491720;28;20028;-29
2023/08/13 15:29:13;;;;;;;0.67;0.50;;;;;;;20.45;63.42;96706.31;10486160;28;20033;-31
2023/08/13 15:34:14;;;;;;;0.63;0.50;;;;;;;20.46;63.71;96688.47;10491425;28;20033;-29
2023/08/13 15:39:14;;;;;;;0.60;0.60;;;;;;;20.46;63.27;96688.47;10477334;28;20032;-29
2023/08/13 15:44:15;;;;;;;0.40;0.40;;;;;;;20.42;63.65;96680.06;10490802;28;20482;-29
2023/08/13 15:49:15;;;;;;;0.40;0.40;;;;;;;20.47;63.58;96697.78;10490965;28;20509;-28
2023/08/13 15:54:15;;;;;;;0.50;0.50;;;;;;;20.47;63.60;96689.31;10483591;28;20362;-28
2023/08/13 15:59:16;;;;;;;0.50;0.40;;;;;;;20.44;63.57;96676.59;10491917;28;20055;-30
2023/08/13 16:04:17;;;;;;;0.60;0.60;;;;;;;20.47;63.50;96681.69;10480335;28;20043;-29
2023/08/13 16:09:17;;;;;;;0.87;0.60;;;;;;;20.47;63.40;96700.31;10483450;28;20383;-29
2023/08/13 16:14:19;;;;;;;0.50;0.50;;;;;;;20.47;63.72;96707.94;10489861;28;20494;-29
2023/08/13 16:19:20;;;;;;;0.40;0.40;;;;;;;20.47;63.46;96702.03;10488264;28;20082;-29
2023/08/13 16:24:20;;;;;;;0.50;0.50;;;;;;;20.48;63.32;96704.56;10492085;28;20032;-28
2023/08/13 16:29:21;;;;;;;0.47;0.47;;;;;;;20.46;63.31;96701.19;10482636;28;20325;-29
2023/08/13 16:34:21;;;;;;;0.50;0.50;;;;;;;20.40;63.35;96675.78;10482861;28;20465;-29
2023/08/13 16:39:22;;;;;;;0.50;0.50;;;;;;;20.48;63.44;96683.38;10487768;28;20382;-29
2023/08/13 16:44:23;;;;;;;0.50;0.50;;;;;;;20.48;63.39;96678.28;10490852;28;20036;-29
2023/08/13 16:49:25;;;;;;;0.60;0.47;;;;;;;20.48;63.71;96684.19;10482967;28;20036;-29
2023/08/13 16:54:25;;;;;;;0.50;0.45;;;;;;;20.47;63.33;96682.53;10491109;28;20152;-29
2023/08/13 16:59:26;;;;;;;0.73;0.60;;;;;;;20.48;63.46;96671.50;10487929;28;20561;-29
2023/08/13 17:04:26;;;;;;;0.47;0.47;;;;;;;20.49;63.72;96675.75;10489418;28;20487;-29
2023/08/13 17:09:27;;;;;;;0.73;0.60;;;;;;;20.49;63.62;96690.16;10479527;28;20033;-29
2023/08/13 17:14:27;;;;;;;0.65;0.50;;;;;;;20.47;63.61;96677.44;10461604;28;20064;-29
2023/08/13 17:19:27;;;;;;;0.50;0.50;;;;;;;20.49;63.09;96688.47;10490400;28;20102;-29
2023/08/13 17:24:28;;;;;;;0.47;0.47;;;;;;;20.49;63.28;96680.84;10479415;28;20066;-29
2023/08/13 17:29:28;;;;;;;0.50;0.50;;;;;;;20.48;63.31;96674.03;10483922;28;20309;-29
2023/08/13 17:34:29;;;;;;;0.50;0.50;;;;;;;20.49;63.31;96678.28;10488609;28;20043;-29
2023/08/13 17:39:29;;;;;;;0.47;0.47;;;;;;;20.48;63.43;96668.94;10478562;28;20032;-32
2023/08/13 17:44:29;;;;;;;0.60;0.60;;;;;;;20.49;63.57;96665.56;10491046;28;20290;-29
2023/08/13 17:49:30;;;;;;;0.55;0.50;;;;;;;20.49;63.47;96663.03;10493930;28;20025;-29
2023/08/13 17:54:30;;;;;;;0.40;0.40;;;;;;;20.49;63.31;96670.66;10496620;28;20040;-29
2023/08/13 17:59:30;;;;;;;0.50;0.50;;;;;;;20.50;63.31;96679.13;10491842;28;20090;-29
2023/08/13 18:04:31;;;;;;;0.30;0.30;;;;;;;20.50;63.55;96681.66;10488295;28;20037;-29
2023/08/13 18:09:31;;;;;;;0.50;0.50;;;;;;;20.48;63.38;96678.28;10487510;28;20036;-27
2023/08/13 18:14:32;;;;;;;1.20;0.87;;;;;;;20.49;63.13;96685.06;10496596;28;20037;-28
2023/08/13 18:19:32;;;;;;;1.00;0.53;;;;;;;20.49;63.02;96685.91;10488299;28;20044;-29
2023/08/13 18:24:32;;;;;;;0.77;0.50;;;;;;;20.50;63.09;96681.66;10479147;28;20124;-29
2023/08/13 18:29:33;;;;;;;0.50;0.50;;;;;;;20.49;63.46;96680.84;10495248;28;20052;-29
2023/08/13 18:34:33;;;;;;;0.70;0.70;;;;;;;20.49;63.43;96675.75;10486618;28;20039;-29
2023/08/13 18:39:34;;;;;;;0.50;0.50;;;;;;;20.49;63.19;96680.84;10485340;28;20036;-29
2023/08/13 18:44:34;;;;;;;0.40;0.40;;;;;;;20.50;63.60;96681.66;10486024;28;20283;-29
2023/08/13 18:49:34;;;;;;;0.50;0.50;;;;;;;20.50;63.01;96692.69;10486317;28;20039;-29
2023/08/13 18:54:35;;;;;;;0.50;0.50;;;;;;;20.50;63.49;96700.31;10494413;28;20028;-29
2023/08/13 18:59:35;;;;;;;0.50;0.50;;;;;;;20.49;63.32;96713.91;10492799;28;20036;-30
2023/08/13 19:04:36;;;;;;;0.40;0.40;;;;;;;20.50;63.21;96715.59;10467124;28;20115;-30
2023/08/13 19:09:36;;;;;;;0.63;0.60;;;;;;;20.51;63.53;96719.81;10487422;28;20030;-29
2023/08/13 19:14:36;;;;;;;0.40;0.40;;;;;;;20.51;63.45;96719.81;10487023;28;20039;-29
2023/08/13 19:19:37;;;;;;;0.47;0.47;;;;;;;20.51;63.34;96731.66;10493410;28;20043;-29
2023/08/13 19:24:37;;;;;;;0.60;0.60;;;;;;;20.47;63.23;96722.38;10485830;28;20795;-30
2023/08/13 19:29:38;;;;;;;0.50;0.50;;;;;;;20.51;63.07;96731.66;10491201;28;20028;-29
2023/08/13 19:34:38;;;;;;;0.60;0.60;;;;;;;20.51;63.20;96737.59;10478169;28;20387;-29
2023/08/13 19:39:38;;;;;;;0.65;0.65;;;;;;;20.48;63.21;96729.16;10486629;28;20040;-29
2023/08/13 19:44:39;;;;;;;0.67;0.47;;;;;;;20.51;63.43;96727.44;10487570;28;20085;-28
2023/08/13 19:49:39;;;;;;;0.63;0.43;;;;;;;20.51;63.57;96727.44;10483697;28;20033;-29
2023/08/13 19:54:39;;;;;;;0.40;0.40;;;;;;;20.47;63.44;96722.38;10491712;28;20383;-29
2023/08/13 19:59:40;;;;;;;0.37;0.37;;;;;;;20.49;63.32;96741.88;10490283;28;20510;-29
2023/08/13 20:04:40;;;;;;;0.87;0.60;;;;;;;20.51;63.33;96741.84;10482567;28;20283;-29
2023/08/13 20:09:41;;;;;;;0.40;0.40;;;;;;;20.44;63.25;96728.34;10483174;28;20298;-29
2023/08/13 20:14:46;;;;;;;0.30;0.30;;;;;;;20.50;62.96;96738.47;10483477;28;20296;-29
2023/08/13 20:19:46;;;;;;;0.45;0.45;;;;;;;20.50;63.20;96737.63;10481070;28;20533;-28
2023/08/13 20:24:47;;;;;;;0.57;0.52;;;;;;;20.53;63.38;96742.66;10482892;28;20028;-28
2023/08/13 20:29:47;;;;;;;0.40;0.40;;;;;;;20.51;63.40;96736.75;10483478;28;20508;-29
2023/08/13 20:34:50;;;;;;;0.50;0.50;;;;;;;20.52;63.39;96736.75;10492188;28;20279;-29
2023/08/13 20:39:50;;;;;;;0.43;0.43;;;;;;;20.46;63.11;96725.78;10485937;28;20388;-29
2023/08/13 20:44:51;;;;;;;0.50;0.50;;;;;;;20.52;62.89;96738.44;10482432;28;20028;-29
2023/08/13 20:49:51;;;;;;;0.40;0.40;;;;;;;20.52;63.13;96725.72;10486526;28;20040;-29
2023/08/13 20:54:52;;;;;;;0.47;0.47;;;;;;;20.52;63.35;96725.72;10488690;28;20418;-29
2023/08/13 20:59:52;;;;;;;0.30;0.30;;;;;;;20.51;63.06;96724.03;10491749;28;20394;-29
2023/08/13 21:04:52;;;;;;;0.40;0.40;;;;;;;20.52;63.20;96723.19;10488305;28;20495;-29
2023/08/13 21:09:53;;;;;;;0.63;0.40;;;;;;;20.50;63.24;96723.22;10499526;28;20103;-29
2023/08/13 21:14:53;;;;;;;0.40;0.40;;;;;;;20.52;63.11;96716.41;10491617;28;20028;-30
2023/08/13 21:19:54;;;;;;;0.40;0.40;;;;;;;20.51;63.20;96714.72;10498229;28;20387;-29
2023/08/13 21:24:54;;;;;;;0.43;0.43;;;;;;;20.50;62.91;96709.63;10490463;28;20436;-29
2023/08/13 21:30:05;;;;;;;0.43;0.40;;;;;;;20.52;63.14;96705.38;10497934;28;20398;-28
2023/08/13 21:35:07;;;;;;;0.50;0.50;;;;;;;20.52;63.10;96705.38;10495605;28;20028;-29
2023/08/13 21:40:08;;;;;;;0.40;0.40;;;;;;;20.52;63.18;96703.69;10475693;28;20032;-28
2023/08/13 21:45:08;;;;;;;0.35;0.35;;;;;;;20.52;62.91;96703.69;10489089;28;20063;-29
2023/08/13 21:50:09;;;;;;;0.40;0.40;;;;;;;20.53;63.11;96707.91;10494158;28;20052;-29
2023/08/13 21:55:09;;;;;;;0.50;0.50;;;;;;;20.52;62.67;96703.69;10496819;28;20036;-29
2023/08/13 22:00:13;;;;;;;0.50;0.50;;;;;;;20.52;62.49;96696.06;10488137;28;20298;-29
2023/08/13 22:05:15;;;;;;;0.43;0.43;;;;;;;20.47;62.86;96697.78;10492722;28;20334;-29
2023/08/13 22:10:16;;;;;;;0.30;0.30;;;;;;;20.51;62.73;96704.53;10493727;28;20414;-29
2023/08/13 22:15:16;;;;;;;0.30;0.30;;;;;;;20.53;62.50;96714.69;10493778;28;20063;-30
2023/08/13 22:20:19;;;;;;;0.30;0.30;;;;;;;20.52;62.86;96713.84;10486823;28;20043;-29
2023/08/13 22:25:20;;;;;;;0.38;0.38;;;;;;;20.52;62.82;96726.56;10490441;28;20036;-29
2023/08/13 22:30:20;;;;;;;0.60;0.60;;;;;;;20.53;62.90;96725.72;10479075;28;20036;-30
2023/08/13 22:35:20;;;;;;;0.50;0.50;;;;;;;20.53;62.88;96728.25;10480213;28;20554;-30
2023/08/13 22:40:21;;;;;;;0.30;0.30;;;;;;;20.53;62.83;96730.81;10489996;28;20123;-29
2023/08/13 22:45:21;;;;;;;0.40;0.40;;;;;;;20.54;62.73;96729.13;10493176;28;20036;-29
2023/08/13 22:50:21;;;;;;;0.40;0.40;;;;;;;20.53;62.56;96723.16;10488210;28;20044;-29
2023/08/13 22:55:22;;;;;;;0.33;0.33;;;;;;;20.52;62.88;96708.78;10494750;28;20064;-28
2023/08/13 23:00:22;;;;;;;0.30;0.30;;;;;;;20.52;62.64;96708.78;10486113;28;20040;-29
2023/08/13 23:05:23;;;;;;;0.57;0.57;;;;;;;20.53;62.73;96707.91;10494472;28;20093;-29
2023/08/13 23:10:23;;;;;;;0.47;0.30;;;;;;;20.54;62.80;96709.59;10488554;28;20051;-30
2023/08/13 23:15:23;;;;;;;0.50;0.50;;;;;;;20.52;62.65;96735.88;10479170;28;20036;-29
2023/08/13 23:20:24;;;;;;;0.27;0.27;;;;;;;20.56;62.80;96824.88;10491197;28;20048;-29